Flight Track Log - Related Links

Times and Time Zones

All times are in EDT time to prevent confusion due to time zone crossing. See the SWA2236 flight status page for this flight to view local times or setup timezone preferences in your user account.

Time Position Orientation Groundspeed Altitude Reporting Facility
EDT Latitude Longitude Course Direction KTS MPH feet Rate Location/Type
Sun 12:20:17 PM 37.7000 -122.2167 130° Southeast 164 189 900  Level Northern Cal TRACON
Sun 12:21:17 PM 37.6667 -122.1667 130° Southeast 206 237 3,300 2,316 Climbing Northern Cal TRACON
Sun 12:22:11 PM 37.6000 -122.1333 158° South 263 303 5,300 3,158 Climbing Northern Cal TRACON
Sun 12:23:11 PM 37.5500 -122.0833 142° Southeast 274 315 9,300 3,333 Climbing Northern Cal TRACON
Sun 12:25:11 PM 37.4500 -121.9000 124° Southeast 348 400 15,300 2,818 Climbing Northern Cal TRACON
Sun 12:27:35 PM 37.3722 -121.6083 108° East 380 437 21,700 2,621 Climbing Los Angeles Center
Sun 12:28:37 PM 37.3350 -121.4675 108° East 403 464 24,300 2,439 Climbing Los Angeles Center
Sun 12:29:38 PM 37.2956 -121.2978 106° East 439 505 26,700 2,098 Climbing Oakland Center
Sun 12:30:40 PM 37.2533 -121.1450 109° East 459 528 28,600 2,049 Climbing Oakland Center
Sun 12:31:41 PM 37.2119 -120.9872 108° East 474 545 30,900 2,164 Climbing Oakland Center
Sun 12:32:42 PM 37.1753 -120.8308 106° East 469 540 33,000 1,024 Climbing Oakland Center
Sun 12:33:44 PM 37.1853 -120.6678 86° East 469 540 33,000  Level Oakland Center
Sun 12:34:45 PM 37.2003 -120.5008 84° East 474 545 33,000  Level Oakland Center
Sun 12:35:46 PM 37.2150 -120.3375 83° East 476 548 33,000  Level Oakland Center
Sun 12:36:47 PM 37.2275 -120.1781 84° East 466 536 33,000  Level Oakland Center
Sun 12:37:49 PM 37.2419 -119.9881 84° East 458 527 33,000  Level Oakland Center
Sun 12:38:50 PM 37.2561 -119.8283 84° East 460 529 33,000  Level Oakland Center
Sun 12:39:51 PM 37.2661 -119.6800 85° East 459 528 33,000  Level Oakland Center
Sun 12:40:53 PM 37.2794 -119.5197 84° East 462 532 33,000  Level Oakland Center
Sun 12:41:54 PM 37.2917 -119.3606 84° East 461 531 33,000  Level Oakland Center
Sun 12:42:55 PM 37.3031 -119.2000 85° East 461 531 33,000  Level Oakland Center
Sun 12:43:57 PM 37.3158 -119.0389 84° East 464 534 33,000  Level Oakland Center
Sun 12:44:58 PM 37.3283 -118.8472 85° East 461 531 33,000  Level Oakland Center
Sun 12:45:59 PM 37.3392 -118.7028 85° East 458 527 33,000  Level Oakland Center
Sun 12:47:01 PM 37.3517 -118.5439 84° East 457 526 33,000  Level Oakland Center
Sun 12:48:02 PM 37.3614 -118.3831 86° East 461 531 33,000  Level Oakland Center
Sun 12:49:03 PM 37.3739 -118.1928 85° East 458 527 33,000  Level Oakland Center
Sun 12:50:05 PM 37.3853 -118.0342 85° East 457 526 33,000  Level Oakland Center
Sun 12:51:06 PM 37.3950 -117.8714 86° East 465 535 33,000  Level Oakland Center
Sun 12:52:07 PM 37.4042 -117.7106 86° East 463 533 33,000  Level Oakland Center
Sun 12:53:09 PM 37.4147 -117.5497 85° East 464 534 33,000  Level Oakland Center
Sun 12:54:10 PM 37.4239 -117.3867 86° East 470 541 33,000  Level Oakland Center
Sun 12:54:54 PM 37.4025 -117.2658 103° East 462 532 33,000  Level Los Angeles Center
Sun 12:55:56 PM 37.3064 -117.1747 143° Southeast 437 503 33,000  Level Los Angeles Center
Sun 12:56:58 PM 37.2056 -117.0894 146° Southeast 438 504 33,000  Level Los Angeles Center
Sun 12:58:00 PM 37.1064 -117.0033 145° Southeast 435 501 33,000  Level Los Angeles Center
Sun 12:59:03 PM 36.9867 -116.9042 147° Southeast 431 496 33,000  Level Los Angeles Center
Sun 01:00:05 PM 36.8883 -116.8211 146° Southeast 428 493 33,000  Level Los Angeles Center
Sun 01:01:07 PM 36.7906 -116.7342 145° Southeast 430 495 33,000 -532 Level Los Angeles Center
Sun 01:02:09 PM 36.7108 -116.6194 131° Southeast 436 502 31,900 -2,032 Descending Los Angeles Center
Sun 01:03:11 PM 36.6303 -116.5033 131° Southeast 443 510 28,800 -2,758 Descending Los Angeles Center
Sun 01:04:13 PM 36.5503 -116.3900 131° Southeast 439 505 26,200 -2,661 Descending Los Angeles Center
Sun 01:05:15 PM 36.4611 -116.2636 131° Southeast 421 484 23,300 -2,565 Descending Los Angeles Center
Sun 01:06:17 PM 36.3869 -116.1583 131° Southeast 405 466 20,900 -2,280 Descending Los Angeles Center
Sun 01:06:55 PM 36.3436 -116.1008 133° Southeast 387 445 19,500 -2,475 Descending Los Angeles Center
Sun 01:07:37 PM 36.2914 -116.0269 131° Southeast 377 434 17,600 -2,163 Descending Los Angeles Center
Sun 01:08:21 PM 36.2458 -115.9606 130° Southeast 368 423 16,400 -1,290 Descending Los Angeles Center
Sun 01:09:24 PM 36.1867 -115.8642 127° Southeast 334 384 15,300 -1,248 Descending Los Angeles Center
Sun 01:10:26 PM 36.1558 -115.7658 111° Southeast 311 358 13,800 -1,113 Descending Los Angeles Center
Sun 01:11:28 PM 36.1228 -115.6603 111° Southeast 305 351 13,000 -387 Descending Los Angeles Center
Sun 01:12:30 PM 36.0928 -115.5678 112° Southeast 295 339 13,000  Level Los Angeles Center
Sun 01:13:32 PM 36.0644 -115.4806 112° Southeast 273 314 13,000 -194 Level Los Angeles Center
Sun 01:14:34 PM 36.0378 -115.3994 112° Southeast 260 299 12,600 -774 Descending Los Angeles Center
Sun 01:15:36 PM 36.0258 -115.3142 100° East 260 299 11,400 -1,113 Descending Los Angeles Center
Sun 01:16:38 PM 36.0203 -115.2267 94° East 258 297 10,300 -1,161 Descending Los Angeles Center
Sun 01:17:40 PM 36.0136 -115.1408 95° East 255 293 9,000 -1,113 Descending Los Angeles Center
Sun 01:18:42 PM 36.0072 -115.0419 95° East 246 283 8,000 -871 Descending Los Angeles Center
Sun 01:19:44 PM 36.0039 -114.9731 93° East 216 249 7,200 -871 Descending Los Angeles Center
Sun 01:20:46 PM 36.0011 -114.9069 93° East 201 231 6,200 -968 Descending Los Angeles Center
Sun 01:21:48 PM 36.0419 -114.8889 20° North 210 242 5,200 -672 Descending Los Angeles Center
Sun 01:22:51 PM 36.0758 -114.9431 308° West 204 235 4,800 -780 Descending Los Angeles Center
Sun 01:23:51 PM 36.0739 -115.0200 268° West 192 221 3,600 -992 Descending Los Angeles Center
Sun 01:24:52 PM 36.0739 -115.0786 270° West 167 192 2,800 -714 Descending Los Angeles Center
Sun 01:25:57 PM 36.0733 -115.1208 269° West 167 192 2,100 -646 Descending Los Angeles Center
Sun 01:27:00 PM 36.0667 -115.1500 270° West  Level FlightAware Approximate

Login

Don't have an account? Register now (free) for customized features, flight alerts, and more!